Time;durP1;ratioP1;P1;durP2;ratioP2;P2;SDS_P1;SDS_P2;PMS_P1;PMS_P2;Temp;Humidity;BMP_temperature;BMP_pressure;BME280_temperature;BME280_humidity;BME280_pressure;Samples;Min_cycle;Max_cycle;Signal;HPM_P1;HPM_P2
2022/05/24 00:07:15;;;;;;;2.40;1.70;;;;;;;12.61;53.53;97871.41;433218;1270;99270;-42
2022/05/24 00:17:22;;;;;;;1.50;1.40;;;;;;;12.57;53.34;97877.81;433303;1270;112571;-42
2022/05/24 00:27:30;;;;;;;3.10;1.50;;;;;;;12.52;53.38;97874.98;433116;1270;108818;-43
2022/05/24 00:37:40;;;;;;;1.70;1.50;;;;;;;12.48;53.53;97867.00;432835;1269;99231;-42
2022/05/24 00:57:59;;;;;;;2.80;1.40;;;;;;;12.34;53.66;97854.24;432909;1271;99381;-42
2022/05/24 01:08:05;;;;;;;1.60;1.50;;;;;;;12.32;53.98;97845.45;432961;1270;111921;-42
2022/05/24 01:18:13;;;;;;;5.00;1.40;;;;;;;12.28;54.17;97833.31;434120;1258;108788;-42
2022/05/24 01:28:23;;;;;;;1.90;1.50;;;;;;;12.21;54.47;97822.80;433864;1268;99286;-41
2022/05/24 01:38:32;;;;;;;2.10;1.70;;;;;;;12.15;54.49;97813.30;432476;1269;108751;-42
2022/05/24 01:48:37;;;;;;;2.50;2.20;;;;;;;12.05;54.90;97805.79;433897;1268;99345;-41
2022/05/24 02:08:49;;;;;;;7.10;4.90;;;;;;;11.86;55.29;97773.48;433979;1268;108892;-43
2022/05/24 02:18:58;;;;;;;8.10;3.50;;;;;;;11.69;55.23;97758.77;433917;1268;99246;-43
2022/05/24 02:39:12;;;;;;;6.60;4.20;;;;;;;11.32;56.16;97753.57;433896;1268;98765;-42
2022/05/24 02:49:19;;;;;;;5.40;3.30;;;;;;;11.34;57.21;97759.02;434023;1268;111727;-41
2022/05/24 02:59:26;;;;;;;4.60;2.60;;;;;;;11.48;57.69;97747.30;433699;1268;108763;-42
2022/05/24 03:09:36;;;;;;;4.20;2.60;;;;;;;11.76;57.63;97735.55;433704;1267;99130;-44
2022/05/24 03:19:44;;;;;;;8.60;4.80;;;;;;;11.96;57.93;97731.50;433920;1267;108662;-45
2022/05/24 03:29:51;;;;;;;11.70;5.40;;;;;;;12.15;57.89;97722.34;433815;1266;99283;-43
2022/05/24 03:39:59;;;;;;;4.90;3.90;;;;;;;12.65;57.82;97727.34;433964;1268;110764;-41
2022/05/24 03:50:06;;;;;;;9.00;4.90;;;;;;;14.21;56.90;97730.73;433856;1267;108313;-45
2022/05/24 04:00:17;;;;;;;14.70;5.50;;;;;;;14.03;56.52;97734.35;433952;1267;99341;-43
2022/05/24 04:10:24;;;;;;;11.20;5.30;;;;;;;13.85;56.48;97752.80;434017;1268;108948;-44
2022/05/24 04:20:31;;;;;;;6.30;3.50;;;;;;;13.39;56.71;97777.13;433894;1268;99350;-41
2022/05/24 04:30:37;;;;;;;4.60;3.60;;;;;;;13.12;57.04;97776.91;433571;1268;112417;-42
2022/05/24 04:51:07;;;;;;;3.50;3.10;;;;;;;13.05;57.55;97778.02;433743;1267;99260;-41
2022/05/24 05:01:13;;;;;;;4.80;4.20;;;;;;;13.11;57.87;97773.41;433368;1268;108816;-41
2022/05/24 05:11:20;;;;;;;3.40;3.00;;;;;;;13.20;58.28;97777.29;433809;1267;99350;-42
2022/05/24 05:21:30;;;;;;;4.50;3.50;;;;;;;13.35;58.43;97784.72;432643;1269;112253;-39
2022/05/24 05:31:37;;;;;;;6.60;4.50;;;;;;;13.56;58.37;97785.37;433548;1268;106927;-42
2022/05/24 05:41:44;;;;;;;5.90;3.60;;;;;;;13.83;58.30;97774.50;433227;1270;99247;-44
2022/05/24 05:51:51;;;;;;;6.10;3.70;;;;;;;14.05;58.16;97776.71;433425;1269;108819;-42
2022/05/24 06:01:58;;;;;;;5.20;4.20;;;;;;;14.08;58.26;97780.90;433534;1270;98827;-41
2022/05/24 06:12:08;;;;;;;9.40;4.50;;;;;;;14.37;58.42;97781.02;433271;1269;112463;-41
2022/05/24 06:22:15;;;;;;;12.10;5.40;;;;;;;14.95;58.08;97778.70;433656;1267;108967;-41
2022/05/24 06:32:22;;;;;;;6.80;4.10;;;;;;;15.33;57.73;97772.51;433732;1267;98761;-41
2022/05/24 06:42:29;;;;;;;7.40;4.40;;;;;;;15.54;57.54;97780.73;433716;1267;108186;-42
2022/05/24 07:02:43;;;;;;;10.10;4.30;;;;;;;16.25;57.00;97781.65;433687;1265;112510;-40
2022/05/24 07:12:58;;;;;;;11.10;4.70;;;;;;;16.72;56.42;97771.23;433576;1267;108788;-41
2022/05/24 07:23:12;;;;;;;4.10;3.40;;;;;;;17.01;55.64;97780.83;433756;1268;99318;-44
2022/05/24 07:33:19;;;;;;;8.50;3.90;;;;;;;17.04;55.67;97785.48;433756;1268;108765;-42
2022/05/24 07:53:51;;;;;;;6.80;3.60;;;;;;;16.85;55.73;97793.86;433595;1267;112491;-42
2022/05/24 08:03:59;;;;;;;10.80;4.70;;;;;;;16.82;56.14;97791.61;433685;1268;109097;-42
2022/05/24 08:24:13;;;;;;;14.40;4.60;;;;;;;16.89;57.31;97812.91;433826;1267;108251;-43
2022/05/24 08:34:20;;;;;;;14.90;5.00;;;;;;;17.13;57.87;97807.73;433800;1267;99253;-44
2022/05/24 08:54:57;;;;;;;14.50;6.20;;;;;;;17.80;57.90;97805.33;433340;1267;107422;-41
2022/05/24 09:05:04;;;;;;;10.10;5.60;;;;;;;17.82;57.19;97808.23;433278;1268;98870;-42
2022/05/24 09:15:11;;;;;;;10.60;5.70;;;;;;;17.88;57.13;97811.14;432742;1268;112594;-42
2022/05/24 09:25:18;;;;;;;14.30;6.20;;;;;;;18.11;56.82;97804.44;432604;1269;108783;-41
2022/05/24 09:35:23;;;;;;;8.60;5.00;;;;;;;18.48;56.25;97797.49;433122;1269;99275;-43
2022/05/24 09:45:36;;;;;;;8.80;4.20;;;;;;;19.43;55.24;97801.79;433357;1269;108742;-40
2022/05/24 10:06:15;;;;;;;5.00;3.70;;;;;;;19.68;53.60;97821.39;433203;1270;112384;-43
2022/05/24 10:26:33;;;;;;;7.00;4.00;;;;;;;20.11;52.84;97814.33;433671;1267;98825;-42
2022/05/24 10:57:27;;;;;;;6.30;4.50;;;;;;;21.39;49.91;97812.14;433657;1267;99276;-45
2022/05/24 11:07:32;;;;;;;9.10;5.40;;;;;;;21.35;50.40;97812.91;433579;1269;112123;-45
2022/05/24 11:17:40;;;;;;;12.10;5.50;;;;;;;21.47;50.02;97808.20;433606;1267;109499;-44
2022/05/24 11:27:52;;;;;;;12.20;6.50;;;;;;;21.36;50.05;97810.73;433385;1267;99267;-41
2022/05/24 11:38:12;;;;;;;9.60;5.30;;;;;;;21.55;50.33;97800.01;433660;1267;112442;-43
2022/05/24 11:48:19;;;;;;;9.50;5.60;;;;;;;22.11;50.39;97801.52;433362;1267;108975;-42
2022/05/24 11:58:48;;;;;;;;;;;;;;;22.48;49.94;97809.90;433610;1267;97957;-43
2022/05/24 12:09:07;;;;;;;11.30;5.40;;;;;;;22.50;49.31;97805.19;433430;1267;107011;-41
2022/05/24 12:19:20;;;;;;;7.20;5.80;;;;;;;22.48;49.53;97806.86;433653;1267;99254;-44
2022/05/24 12:29:28;;;;;;;10.60;6.60;;;;;;;21.92;49.78;97801.81;433307;1267;112268;-43
2022/05/24 12:39:35;;;;;;;8.80;6.30;;;;;;;21.43;50.62;97805.92;433303;1267;108645;-43
2022/05/24 12:49:52;;;;;;;7.40;6.10;;;;;;;21.55;51.24;97800.23;433500;1267;99263;-43
2022/05/24 12:59:59;;;;;;;11.50;6.40;;;;;;;21.94;51.25;97795.67;433123;1268;112451;-42
2022/05/24 13:10:03;;;;;;;11.10;5.70;;;;;;;22.22;51.02;97800.86;433540;1267;107409;-45
2022/05/24 13:20:24;;;;;;;8.00;5.50;;;;;;;22.25;50.70;97797.27;433530;1267;98824;-41
2022/05/24 13:41:10;;;;;;;8.20;6.20;;;;;;;22.04;50.97;97797.21;433610;1268;99280;-41
2022/05/24 13:51:27;;;;;;;12.00;5.80;;;;;;;21.99;51.03;97801.33;433518;1268;112167;-43
2022/05/24 14:01:36;;;;;;;9.10;5.90;;;;;;;22.09;51.28;97804.41;433604;1267;108547;-42
2022/05/24 14:11:52;;;;;;;11.10;6.50;;;;;;;22.20;51.35;97811.23;433654;1268;98052;-42
2022/05/24 14:21:59;;;;;;;13.20;6.10;;;;;;;22.07;51.50;97810.88;433636;1268;109576;-41
2022/05/24 14:42:11;;;;;;;20.60;7.80;;;;;;;21.53;52.10;97820.71;433607;1265;112488;-43
2022/05/24 14:52:20;;;;;;;10.20;5.90;;;;;;;21.31;52.36;97827.95;433597;1268;108827;-43
2022/05/24 15:02:27;;;;;;;10.70;5.80;;;;;;;20.96;52.86;97831.39;433560;1267;99257;-46
2022/05/24 15:22:57;;;;;;;10.30;6.10;;;;;;;20.84;53.82;97826.23;433655;1267;99294;-42
2022/05/24 15:33:04;;;;;;;11.40;6.90;;;;;;;20.93;54.06;97826.45;433802;1268;112378;-42
2022/05/24 15:53:19;;;;;;;7.30;5.80;;;;;;;20.72;54.38;97845.19;433557;1267;99251;-41
2022/05/24 16:03:27;;;;;;;12.40;5.60;;;;;;;20.69;54.61;97861.40;433489;1268;108636;-42
2022/05/24 16:13:37;;;;;;;11.50;5.70;;;;;;;20.59;54.55;97861.73;433684;1267;99285;-44
2022/05/24 16:23:45;;;;;;;9.10;4.70;;;;;;;20.40;54.85;97869.79;433743;1268;112344;-41
2022/05/24 16:33:53;;;;;;;9.60;5.90;;;;;;;20.15;55.47;97884.59;433807;1268;108694;-42
2022/05/24 17:04:33;;;;;;;6.40;5.40;;;;;;;19.43;57.40;97929.14;433571;1268;98038;-42
2022/05/24 17:14:40;;;;;;;8.90;6.70;;;;;;;19.14;58.32;97943.58;434017;1268;112373;-42
2022/05/24 17:24:47;;;;;;;15.00;8.30;;;;;;;18.85;59.05;97957.05;433815;1268;108709;-42
2022/05/24 17:34:54;;;;;;;13.70;9.40;;;;;;;18.62;59.82;97960.61;433516;1269;99340;-41
2022/05/24 17:45:02;;;;;;;15.50;9.90;;;;;;;18.39;60.88;97973.49;433648;1268;108816;-42
2022/05/24 17:55:10;;;;;;;12.30;9.80;;;;;;;18.13;61.68;97970.33;433825;1268;99281;-40
2022/05/24 18:05:17;;;;;;;12.80;10.20;;;;;;;17.90;62.86;97969.27;433710;1268;112310;-44
2022/05/24 18:15:25;;;;;;;12.70;10.70;;;;;;;17.65;63.86;97971.08;433711;1268;107863;-41
2022/05/24 18:36:03;;;;;;;12.30;11.00;;;;;;;17.68;64.97;98010.05;433483;1271;107826;-42
2022/05/24 18:46:10;;;;;;;16.50;13.60;;;;;;;17.65;65.55;98022.86;433897;1268;99275;-41
2022/05/24 18:56:17;;;;;;;16.00;12.60;;;;;;;17.59;65.89;98036.31;433774;1268;112506;-41
2022/05/24 19:06:26;;;;;;;11.90;10.70;;;;;;;17.50;66.12;98050.28;433481;1268;108676;-42
2022/05/24 19:16:33;;;;;;;12.30;9.60;;;;;;;17.46;66.61;98053.37;433650;1268;98873;-41
2022/05/24 19:26:40;;;;;;;10.70;9.60;;;;;;;17.36;67.21;98056.95;433703;1265;108841;-41
2022/05/24 19:36:47;;;;;;;10.40;9.30;;;;;;;17.24;67.68;98066.17;433544;1268;99257;-41
2022/05/24 19:57:02;;;;;;;13.50;10.60;;;;;;;17.30;68.41;98082.66;433865;1268;108731;-43
2022/05/24 20:07:08;;;;;;;14.30;12.80;;;;;;;17.35;68.49;98090.79;433824;1268;99251;-40
2022/05/24 20:17:18;;;;;;;12.60;10.80;;;;;;;17.37;68.59;98094.81;433857;1268;108783;-41
2022/05/24 20:27:25;;;;;;;11.90;10.60;;;;;;;17.29;68.82;98106.73;433721;1268;98867;-42
2022/05/24 20:37:32;;;;;;;14.30;11.70;;;;;;;17.22;69.30;98122.84;433769;1267;113109;-41
2022/05/24 20:47:40;;;;;;;15.20;13.60;;;;;;;17.23;69.36;98123.84;433784;1267;108846;-41
2022/05/24 21:07:52;;;;;;;20.70;16.20;;;;;;;17.06;70.04;98114.10;433968;1268;108876;-42
2022/05/24 21:18:01;;;;;;;18.60;15.20;;;;;;;16.98;70.27;98112.52;434029;1268;98052;-41
2022/05/24 21:28:15;;;;;;;17.90;15.40;;;;;;;17.02;70.36;98104.94;433949;1268;112335;-43
2022/05/24 21:38:25;;;;;;;18.30;16.00;;;;;;;16.96;70.72;98111.31;433756;1268;107852;-42
2022/05/24 21:48:34;;;;;;;17.40;15.50;;;;;;;16.88;71.03;98115.58;433914;1268;98364;-41
2022/05/24 21:58:40;;;;;;;;;;;;;;;16.77;71.25;98112.90;433666;1267;108919;-41
2022/05/24 22:08:48;;;;;;;21.00;16.40;;;;;;;16.63;71.89;98124.17;433810;1268;99257;-43
2022/05/24 22:18:56;;;;;;;20.30;17.80;;;;;;;16.67;71.81;98132.69;433947;1268;112408;-40
2022/05/24 22:29:03;;;;;;;18.50;15.90;;;;;;;16.59;72.10;98137.87;433782;1267;108869;-41
2022/05/24 22:39:11;;;;;;;21.40;17.90;;;;;;;16.51;72.22;98142.83;433810;1268;98815;-40
2022/05/24 22:49:18;;;;;;;19.20;16.70;;;;;;;16.41;72.62;98143.04;433451;1268;474422;-44
2022/05/24 23:09:30;;;;;;;20.00;17.80;;;;;;;16.48;73.09;98139.13;434014;1268;112500;-40
2022/05/24 23:19:38;;;;;;;19.60;16.40;;;;;;;16.42;73.23;98127.43;433685;1268;108855;-40
2022/05/24 23:29:45;;;;;;;22.30;16.80;;;;;;;16.43;73.19;98130.31;433875;1268;97972;-43
2022/05/24 23:39:53;;;;;;;22.80;19.60;;;;;;;16.39;73.22;98126.82;433304;1268;108858;-41
